sensor_id;sensor_type;location;lat;lon;timestamp;P1;durP1;ratioP1;P2;durP2;ratioP2
36597;SDS011;22607;49.550;11.940;2023-12-14T00:02:17;7.32;;;2.85;;
36597;SDS011;22607;49.550;11.940;2023-12-14T00:04:46;7.65;;;3.10;;
36597;SDS011;22607;49.550;11.940;2023-12-14T00:07:12;7.50;;;2.40;;
36597;SDS011;22607;49.550;11.940;2023-12-14T00:09:41;7.75;;;2.80;;
36597;SDS011;22607;49.550;11.940;2023-12-14T00:12:07;7.40;;;2.53;;
36597;SDS011;22607;49.550;11.940;2023-12-14T00:14:34;7.47;;;2.50;;
36597;SDS011;22607;49.550;11.940;2023-12-14T00:17:01;6.25;;;2.15;;
36597;SDS011;22607;49.550;11.940;2023-12-14T00:19:27;6.80;;;2.50;;
36597;SDS011;22607;49.550;11.940;2023-12-14T00:21:54;6.03;;;1.90;;
36597;SDS011;22607;49.550;11.940;2023-12-14T00:24:21;6.72;;;2.20;;
36597;SDS011;22607;49.550;11.940;2023-12-14T00:26:47;6.80;;;2.30;;
36597;SDS011;22607;49.550;11.940;2023-12-14T00:29:14;8.65;;;2.75;;
36597;SDS011;22607;49.550;11.940;2023-12-14T00:31:40;8.27;;;2.30;;
36597;SDS011;22607;49.550;11.940;2023-12-14T00:34:07;8.57;;;2.67;;
36597;SDS011;22607;49.550;11.940;2023-12-14T00:36:34;9.40;;;3.13;;
36597;SDS011;22607;49.550;11.940;2023-12-14T00:39:00;7.03;;;2.65;;
36597;SDS011;22607;49.550;11.940;2023-12-14T00:41:27;7.30;;;2.20;;
36597;SDS011;22607;49.550;11.940;2023-12-14T00:43:53;7.60;;;2.30;;
36597;SDS011;22607;49.550;11.940;2023-12-14T00:46:20;7.53;;;2.15;;
36597;SDS011;22607;49.550;11.940;2023-12-14T00:48:47;7.72;;;2.35;;
36597;SDS011;22607;49.550;11.940;2023-12-14T00:51:13;7.03;;;2.45;;
36597;SDS011;22607;49.550;11.940;2023-12-14T00:53:40;7.60;;;2.80;;
36597;SDS011;22607;49.550;11.940;2023-12-14T00:56:07;7.30;;;3.20;;
36597;SDS011;22607;49.550;11.940;2023-12-14T00:58:35;8.63;;;3.10;;
36597;SDS011;22607;49.550;11.940;2023-12-14T01:01:02;6.80;;;2.47;;
36597;SDS011;22607;49.550;11.940;2023-12-14T01:03:29;7.50;;;3.30;;
36597;SDS011;22607;49.550;11.940;2023-12-14T01:05:55;8.35;;;3.70;;
36597;SDS011;22607;49.550;11.940;2023-12-14T01:08:22;7.75;;;3.30;;
36597;SDS011;22607;49.550;11.940;2023-12-14T01:10:49;8.73;;;2.70;;
36597;SDS011;22607;49.550;11.940;2023-12-14T01:13:16;8.52;;;3.10;;
36597;SDS011;22607;49.550;11.940;2023-12-14T01:15:42;7.22;;;2.83;;
36597;SDS011;22607;49.550;11.940;2023-12-14T01:18:09;8.55;;;4.10;;
36597;SDS011;22607;49.550;11.940;2023-12-14T01:20:36;7.65;;;3.00;;
36597;SDS011;22607;49.550;11.940;2023-12-14T01:23:02;8.10;;;3.10;;
36597;SDS011;22607;49.550;11.940;2023-12-14T01:25:29;8.38;;;3.42;;
36597;SDS011;22607;49.550;11.940;2023-12-14T01:27:56;8.93;;;3.08;;
36597;SDS011;22607;49.550;11.940;2023-12-14T01:30:24;7.35;;;2.72;;
36597;SDS011;22607;49.550;11.940;2023-12-14T01:32:50;8.60;;;3.90;;
36597;SDS011;22607;49.550;11.940;2023-12-14T01:35:17;9.20;;;3.72;;
36597;SDS011;22607;49.550;11.940;2023-12-14T01:37:43;8.88;;;3.88;;
36597;SDS011;22607;49.550;11.940;2023-12-14T01:40:10;9.05;;;4.03;;
36597;SDS011;22607;49.550;11.940;2023-12-14T01:42:37;9.48;;;4.20;;
36597;SDS011;22607;49.550;11.940;2023-12-14T01:45:05;8.88;;;4.32;;
36597;SDS011;22607;49.550;11.940;2023-12-14T01:47:32;10.32;;;4.40;;
36597;SDS011;22607;49.550;11.940;2023-12-14T01:49:58;10.02;;;4.22;;
36597;SDS011;22607;49.550;11.940;2023-12-14T01:52:25;10.23;;;5.07;;
36597;SDS011;22607;49.550;11.940;2023-12-14T01:54:52;11.77;;;4.07;;
36597;SDS011;22607;49.550;11.940;2023-12-14T01:57:18;9.32;;;3.67;;
36597;SDS011;22607;49.550;11.940;2023-12-14T01:59:45;9.77;;;4.50;;
36597;SDS011;22607;49.550;11.940;2023-12-14T02:02:11;10.13;;;4.22;;
36597;SDS011;22607;49.550;11.940;2023-12-14T02:04:38;10.32;;;4.10;;
36597;SDS011;22607;49.550;11.940;2023-12-14T02:07:05;10.18;;;4.30;;
36597;SDS011;22607;49.550;11.940;2023-12-14T02:09:31;8.82;;;3.35;;
36597;SDS011;22607;49.550;11.940;2023-12-14T02:11:58;8.93;;;3.38;;
36597;SDS011;22607;49.550;11.940;2023-12-14T02:14:24;11.00;;;4.07;;
36597;SDS011;22607;49.550;11.940;2023-12-14T02:16:51;9.60;;;4.10;;
36597;SDS011;22607;49.550;11.940;2023-12-14T02:19:18;8.73;;;3.92;;
36597;SDS011;22607;49.550;11.940;2023-12-14T02:21:44;8.32;;;3.22;;
36597;SDS011;22607;49.550;11.940;2023-12-14T02:24:11;8.38;;;2.95;;
36597;SDS011;22607;49.550;11.940;2023-12-14T02:26:37;9.68;;;3.53;;
36597;SDS011;22607;49.550;11.940;2023-12-14T02:29:04;8.20;;;3.38;;
36597;SDS011;22607;49.550;11.940;2023-12-14T02:31:31;8.20;;;3.55;;
36597;SDS011;22607;49.550;11.940;2023-12-14T02:33:57;9.32;;;4.28;;
36597;SDS011;22607;49.550;11.940;2023-12-14T02:36:24;9.10;;;3.78;;
36597;SDS011;22607;49.550;11.940;2023-12-14T02:38:50;10.25;;;3.55;;
36597;SDS011;22607;49.550;11.940;2023-12-14T02:41:17;8.82;;;3.42;;
36597;SDS011;22607;49.550;11.940;2023-12-14T02:43:44;9.32;;;3.80;;
36597;SDS011;22607;49.550;11.940;2023-12-14T02:46:10;9.43;;;3.80;;
36597;SDS011;22607;49.550;11.940;2023-12-14T02:48:40;10.02;;;4.13;;
36597;SDS011;22607;49.550;11.940;2023-12-14T02:51:12;10.55;;;4.05;;
36597;SDS011;22607;49.550;11.940;2023-12-14T02:53:42;10.73;;;4.20;;
36597;SDS011;22607;49.550;11.940;2023-12-14T02:56:09;9.85;;;3.97;;
36597;SDS011;22607;49.550;11.940;2023-12-14T02:58:37;9.07;;;4.15;;
36597;SDS011;22607;49.550;11.940;2023-12-14T03:01:04;9.25;;;3.92;;
36597;SDS011;22607;49.550;11.940;2023-12-14T03:03:31;9.75;;;3.67;;
36597;SDS011;22607;49.550;11.940;2023-12-14T03:05:57;10.18;;;4.00;;
36597;SDS011;22607;49.550;11.940;2023-12-14T03:08:24;8.63;;;3.80;;
36597;SDS011;22607;49.550;11.940;2023-12-14T03:10:50;10.65;;;4.65;;
36597;SDS011;22607;49.550;11.940;2023-12-14T03:13:18;10.80;;;4.18;;
36597;SDS011;22607;49.550;11.940;2023-12-14T03:15:45;9.13;;;4.07;;
36597;SDS011;22607;49.550;11.940;2023-12-14T03:18:12;8.80;;;4.05;;
36597;SDS011;22607;49.550;11.940;2023-12-14T03:20:40;11.80;;;4.10;;
36597;SDS011;22607;49.550;11.940;2023-12-14T03:23:07;8.73;;;3.88;;
36597;SDS011;22607;49.550;11.940;2023-12-14T03:25:34;8.70;;;4.00;;
36597;SDS011;22607;49.550;11.940;2023-12-14T03:28:01;8.50;;;3.60;;
36597;SDS011;22607;49.550;11.940;2023-12-14T03:30:28;9.55;;;3.90;;
36597;SDS011;22607;49.550;11.940;2023-12-14T03:32:54;8.35;;;3.90;;
36597;SDS011;22607;49.550;11.940;2023-12-14T03:35:21;10.18;;;3.80;;
36597;SDS011;22607;49.550;11.940;2023-12-14T03:37:48;11.13;;;4.68;;
36597;SDS011;22607;49.550;11.940;2023-12-14T03:40:16;9.00;;;4.32;;
36597;SDS011;22607;49.550;11.940;2023-12-14T03:42:42;8.57;;;3.40;;
36597;SDS011;22607;49.550;11.940;2023-12-14T03:45:09;8.48;;;3.90;;
36597;SDS011;22607;49.550;11.940;2023-12-14T03:47:36;9.82;;;3.88;;
36597;SDS011;22607;49.550;11.940;2023-12-14T03:50:03;10.38;;;4.40;;
36597;SDS011;22607;49.550;11.940;2023-12-14T03:52:30;8.40;;;3.25;;
36597;SDS011;22607;49.550;11.940;2023-12-14T03:54:58;9.23;;;3.50;;
36597;SDS011;22607;49.550;11.940;2023-12-14T03:57:24;8.32;;;3.45;;
36597;SDS011;22607;49.550;11.940;2023-12-14T03:59:52;8.32;;;3.35;;
36597;SDS011;22607;49.550;11.940;2023-12-14T04:02:19;9.07;;;3.35;;
36597;SDS011;22607;49.550;11.940;2023-12-14T04:04:45;8.90;;;3.60;;
36597;SDS011;22607;49.550;11.940;2023-12-14T04:07:13;11.90;;;3.58;;
36597;SDS011;22607;49.550;11.940;2023-12-14T04:09:40;10.23;;;3.78;;
36597;SDS011;22607;49.550;11.940;2023-12-14T04:12:07;9.48;;;3.50;;
36597;SDS011;22607;49.550;11.940;2023-12-14T04:14:33;9.15;;;3.60;;
36597;SDS011;22607;49.550;11.940;2023-12-14T04:17:00;9.45;;;3.60;;
36597;SDS011;22607;49.550;11.940;2023-12-14T04:19:26;9.88;;;3.50;;
36597;SDS011;22607;49.550;11.940;2023-12-14T04:21:53;8.20;;;3.53;;
36597;SDS011;22607;49.550;11.940;2023-12-14T04:24:19;8.40;;;3.30;;
36597;SDS011;22607;49.550;11.940;2023-12-14T04:26:48;8.98;;;3.83;;
36597;SDS011;22607;49.550;11.940;2023-12-14T04:29:14;9.90;;;3.22;;
36597;SDS011;22607;49.550;11.940;2023-12-14T04:31:41;8.48;;;3.42;;
36597;SDS011;22607;49.550;11.940;2023-12-14T04:34:08;8.10;;;3.33;;
36597;SDS011;22607;49.550;11.940;2023-12-14T04:36:38;9.23;;;3.40;;
36597;SDS011;22607;49.550;11.940;2023-12-14T04:39:05;8.80;;;3.10;;
36597;SDS011;22607;49.550;11.940;2023-12-14T04:41:31;9.05;;;3.13;;
36597;SDS011;22607;49.550;11.940;2023-12-14T04:43:58;10.38;;;3.58;;
36597;SDS011;22607;49.550;11.940;2023-12-14T04:46:26;9.38;;;3.90;;
36597;SDS011;22607;49.550;11.940;2023-12-14T04:48:52;8.45;;;3.25;;
36597;SDS011;22607;49.550;11.940;2023-12-14T04:51:19;8.60;;;3.45;;
36597;SDS011;22607;49.550;11.940;2023-12-14T04:53:45;7.13;;;2.50;;
36597;SDS011;22607;49.550;11.940;2023-12-14T04:56:12;7.82;;;3.17;;
36597;SDS011;22607;49.550;11.940;2023-12-14T04:58:39;9.75;;;3.60;;
36597;SDS011;22607;49.550;11.940;2023-12-14T05:01:06;9.20;;;3.80;;
36597;SDS011;22607;49.550;11.940;2023-12-14T05:03:34;9.05;;;4.07;;
36597;SDS011;22607;49.550;11.940;2023-12-14T05:06:01;7.88;;;3.08;;
36597;SDS011;22607;49.550;11.940;2023-12-14T05:08:28;10.15;;;4.85;;
36597;SDS011;22607;49.550;11.940;2023-12-14T05:10:54;9.27;;;4.57;;
36597;SDS011;22607;49.550;11.940;2023-12-14T05:13:23;10.48;;;5.07;;
36597;SDS011;22607;49.550;11.940;2023-12-14T05:15:50;12.23;;;6.13;;
36597;SDS011;22607;49.550;11.940;2023-12-14T05:18:18;11.13;;;4.68;;
36597;SDS011;22607;49.550;11.940;2023-12-14T05:20:45;10.23;;;4.57;;
36597;SDS011;22607;49.550;11.940;2023-12-14T05:23:12;9.15;;;3.95;;
36597;SDS011;22607;49.550;11.940;2023-12-14T05:25:39;9.95;;;4.53;;
36597;SDS011;22607;49.550;11.940;2023-12-14T05:28:05;9.90;;;4.32;;
36597;SDS011;22607;49.550;11.940;2023-12-14T05:30:32;9.00;;;3.90;;
36597;SDS011;22607;49.550;11.940;2023-12-14T05:32:58;8.57;;;3.95;;
36597;SDS011;22607;49.550;11.940;2023-12-14T05:35:25;9.23;;;4.45;;
36597;SDS011;22607;49.550;11.940;2023-12-14T05:37:52;10.07;;;3.85;;
36597;SDS011;22607;49.550;11.940;2023-12-14T05:40:18;10.57;;;5.00;;
36597;SDS011;22607;49.550;11.940;2023-12-14T05:42:45;12.95;;;5.22;;
36597;SDS011;22607;49.550;11.940;2023-12-14T05:45:12;9.90;;;4.72;;
36597;SDS011;22607;49.550;11.940;2023-12-14T05:47:38;9.98;;;5.05;;
36597;SDS011;22607;49.550;11.940;2023-12-14T05:50:07;11.15;;;4.63;;
36597;SDS011;22607;49.550;11.940;2023-12-14T05:52:36;11.18;;;4.50;;
36597;SDS011;22607;49.550;11.940;2023-12-14T05:55:04;11.18;;;4.35;;
36597;SDS011;22607;49.550;11.940;2023-12-14T05:57:31;10.10;;;4.22;;
36597;SDS011;22607;49.550;11.940;2023-12-14T05:59:58;9.48;;;4.25;;
36597;SDS011;22607;49.550;11.940;2023-12-14T06:02:25;9.73;;;4.55;;
36597;SDS011;22607;49.550;11.940;2023-12-14T06:04:51;10.23;;;4.28;;
36597;SDS011;22607;49.550;11.940;2023-12-14T06:07:18;10.40;;;4.40;;
36597;SDS011;22607;49.550;11.940;2023-12-14T06:09:45;9.77;;;4.47;;
36597;SDS011;22607;49.550;11.940;2023-12-14T06:12:11;11.13;;;4.38;;
36597;SDS011;22607;49.550;11.940;2023-12-14T06:14:38;11.75;;;4.65;;
36597;SDS011;22607;49.550;11.940;2023-12-14T06:17:04;9.57;;;4.22;;
36597;SDS011;22607;49.550;11.940;2023-12-14T06:19:31;9.07;;;4.28;;
36597;SDS011;22607;49.550;11.940;2023-12-14T06:21:58;9.50;;;3.65;;
36597;SDS011;22607;49.550;11.940;2023-12-14T06:24:25;9.65;;;4.25;;
36597;SDS011;22607;49.550;11.940;2023-12-14T06:26:52;9.48;;;4.18;;
36597;SDS011;22607;49.550;11.940;2023-12-14T06:29:18;10.85;;;4.28;;
36597;SDS011;22607;49.550;11.940;2023-12-14T06:31:45;10.95;;;5.28;;
36597;SDS011;22607;49.550;11.940;2023-12-14T06:34:12;8.93;;;3.90;;
36597;SDS011;22607;49.550;11.940;2023-12-14T06:36:43;8.88;;;3.78;;
36597;SDS011;22607;49.550;11.940;2023-12-14T06:39:11;10.60;;;4.25;;
36597;SDS011;22607;49.550;11.940;2023-12-14T06:41:38;9.90;;;4.22;;
36597;SDS011;22607;49.550;11.940;2023-12-14T06:44:06;10.30;;;3.55;;
36597;SDS011;22607;49.550;11.940;2023-12-14T06:46:35;8.40;;;3.50;;
36597;SDS011;22607;49.550;11.940;2023-12-14T06:49:03;9.73;;;3.85;;
36597;SDS011;22607;49.550;11.940;2023-12-14T06:51:30;9.10;;;4.03;;
36597;SDS011;22607;49.550;11.940;2023-12-14T06:53:57;9.02;;;3.40;;
36597;SDS011;22607;49.550;11.940;2023-12-14T06:56:23;10.60;;;4.40;;
36597;SDS011;22607;49.550;11.940;2023-12-14T06:58:50;8.57;;;3.63;;
36597;SDS011;22607;49.550;11.940;2023-12-14T07:01:17;8.85;;;3.42;;
36597;SDS011;22607;49.550;11.940;2023-12-14T07:03:46;8.55;;;3.63;;
36597;SDS011;22607;49.550;11.940;2023-12-14T07:06:14;11.02;;;3.53;;
36597;SDS011;22607;49.550;11.940;2023-12-14T07:08:42;8.20;;;3.35;;
36597;SDS011;22607;49.550;11.940;2023-12-14T07:11:10;9.88;;;3.80;;
36597;SDS011;22607;49.550;11.940;2023-12-14T07:13:38;10.00;;;4.20;;
36597;SDS011;22607;49.550;11.940;2023-12-14T07:16:09;9.48;;;3.80;;
36597;SDS011;22607;49.550;11.940;2023-12-14T07:21:04;11.23;;;5.00;;
36597;SDS011;22607;49.550;11.940;2023-12-14T07:23:31;8.23;;;3.20;;
36597;SDS011;22607;49.550;11.940;2023-12-14T07:25:58;8.35;;;3.47;;
36597;SDS011;22607;49.550;11.940;2023-12-14T07:28:28;9.68;;;3.95;;
36597;SDS011;22607;49.550;11.940;2023-12-14T07:30:55;11.73;;;4.28;;
36597;SDS011;22607;49.550;11.940;2023-12-14T07:33:22;9.30;;;4.18;;
36597;SDS011;22607;49.550;11.940;2023-12-14T07:35:49;8.50;;;3.53;;
36597;SDS011;22607;49.550;11.940;2023-12-14T07:38:15;9.35;;;4.00;;
36597;SDS011;22607;49.550;11.940;2023-12-14T07:40:42;12.20;;;4.70;;
36597;SDS011;22607;49.550;11.940;2023-12-14T07:43:09;8.77;;;3.72;;
36597;SDS011;22607;49.550;11.940;2023-12-14T07:45:35;9.93;;;4.20;;
36597;SDS011;22607;49.550;11.940;2023-12-14T07:48:02;10.43;;;4.93;;
36597;SDS011;22607;49.550;11.940;2023-12-14T07:50:30;12.15;;;5.22;;
36597;SDS011;22607;49.550;11.940;2023-12-14T07:52:57;11.50;;;5.63;;
36597;SDS011;22607;49.550;11.940;2023-12-14T07:55:24;10.27;;;4.65;;
36597;SDS011;22607;49.550;11.940;2023-12-14T07:57:50;10.52;;;4.78;;
36597;SDS011;22607;49.550;11.940;2023-12-14T08:00:17;11.35;;;4.80;;
36597;SDS011;22607;49.550;11.940;2023-12-14T08:02:44;13.82;;;5.75;;
36597;SDS011;22607;49.550;11.940;2023-12-14T08:05:11;11.27;;;5.07;;
36597;SDS011;22607;49.550;11.940;2023-12-14T08:07:38;10.68;;;4.88;;
36597;SDS011;22607;49.550;11.940;2023-12-14T08:10:04;13.25;;;6.55;;
36597;SDS011;22607;49.550;11.940;2023-12-14T08:12:31;11.40;;;5.10;;
36597;SDS011;22607;49.550;11.940;2023-12-14T08:14:59;9.20;;;4.20;;
36597;SDS011;22607;49.550;11.940;2023-12-14T08:17:25;8.90;;;3.85;;
36597;SDS011;22607;49.550;11.940;2023-12-14T08:19:54;10.05;;;4.55;;
36597;SDS011;22607;49.550;11.940;2023-12-14T08:22:22;10.65;;;4.25;;
36597;SDS011;22607;49.550;11.940;2023-12-14T08:24:48;9.95;;;4.63;;
36597;SDS011;22607;49.550;11.940;2023-12-14T08:27:15;12.45;;;5.22;;
36597;SDS011;22607;49.550;11.940;2023-12-14T08:29:42;10.32;;;4.82;;
36597;SDS011;22607;49.550;11.940;2023-12-14T08:32:11;12.05;;;5.60;;
36597;SDS011;22607;49.550;11.940;2023-12-14T08:34:37;12.07;;;5.20;;
36597;SDS011;22607;49.550;11.940;2023-12-14T08:37:06;10.25;;;4.10;;
36597;SDS011;22607;49.550;11.940;2023-12-14T08:39:33;9.73;;;3.83;;
36597;SDS011;22607;49.550;11.940;2023-12-14T08:42:03;9.68;;;3.80;;
36597;SDS011;22607;49.550;11.940;2023-12-14T08:44:29;9.55;;;4.00;;
36597;SDS011;22607;49.550;11.940;2023-12-14T08:46:56;9.20;;;3.85;;
36597;SDS011;22607;49.550;11.940;2023-12-14T08:49:23;8.45;;;3.33;;
36597;SDS011;22607;49.550;11.940;2023-12-14T08:51:50;9.43;;;3.58;;
36597;SDS011;22607;49.550;11.940;2023-12-14T08:54:17;8.93;;;3.33;;
36597;SDS011;22607;49.550;11.940;2023-12-14T08:56:44;7.97;;;3.13;;
36597;SDS011;22607;49.550;11.940;2023-12-14T08:59:11;8.98;;;3.50;;
36597;SDS011;22607;49.550;11.940;2023-12-14T09:01:38;8.48;;;2.60;;
36597;SDS011;22607;49.550;11.940;2023-12-14T09:04:05;8.52;;;3.17;;
36597;SDS011;22607;49.550;11.940;2023-12-14T09:06:32;7.55;;;2.50;;
36597;SDS011;22607;49.550;11.940;2023-12-14T09:08:59;7.57;;;2.55;;
36597;SDS011;22607;49.550;11.940;2023-12-14T09:11:25;6.60;;;1.98;;
36597;SDS011;22607;49.550;11.940;2023-12-14T09:13:52;7.18;;;2.28;;
36597;SDS011;22607;49.550;11.940;2023-12-14T09:16:19;7.15;;;2.63;;
36597;SDS011;22607;49.550;11.940;2023-12-14T09:18:46;7.20;;;2.60;;
36597;SDS011;22607;49.550;11.940;2023-12-14T09:21:12;7.22;;;2.58;;
36597;SDS011;22607;49.550;11.940;2023-12-14T09:23:41;6.78;;;2.22;;
36597;SDS011;22607;49.550;11.940;2023-12-14T09:26:07;8.88;;;2.70;;
36597;SDS011;22607;49.550;11.940;2023-12-14T09:28:34;6.35;;;2.10;;
36597;SDS011;22607;49.550;11.940;2023-12-14T09:31:01;7.55;;;2.25;;
36597;SDS011;22607;49.550;11.940;2023-12-14T09:33:30;6.43;;;2.03;;
36597;SDS011;22607;49.550;11.940;2023-12-14T09:35:57;7.50;;;2.33;;
36597;SDS011;22607;49.550;11.940;2023-12-14T09:38:23;7.78;;;2.10;;
36597;SDS011;22607;49.550;11.940;2023-12-14T09:40:50;6.90;;;2.10;;
36597;SDS011;22607;49.550;11.940;2023-12-14T09:43:16;5.78;;;1.80;;
36597;SDS011;22607;49.550;11.940;2023-12-14T09:45:43;6.25;;;1.77;;
36597;SDS011;22607;49.550;11.940;2023-12-14T09:48:11;6.97;;;1.90;;
36597;SDS011;22607;49.550;11.940;2023-12-14T09:50:39;7.57;;;2.10;;
36597;SDS011;22607;49.550;11.940;2023-12-14T09:53:06;6.93;;;1.90;;
36597;SDS011;22607;49.550;11.940;2023-12-14T09:55:34;5.82;;;1.88;;
36597;SDS011;22607;49.550;11.940;2023-12-14T09:58:01;6.40;;;2.13;;
36597;SDS011;22607;49.550;11.940;2023-12-14T10:00:33;7.25;;;2.40;;
36597;SDS011;22607;49.550;11.940;2023-12-14T10:05:55;7.30;;;2.00;;
36597;SDS011;22607;49.550;11.940;2023-12-14T10:08:25;7.32;;;2.80;;
36597;SDS011;22607;49.550;11.940;2023-12-14T10:10:53;7.20;;;2.10;;
36597;SDS011;22607;49.550;11.940;2023-12-14T10:13:22;8.52;;;2.92;;
36597;SDS011;22607;49.550;11.940;2023-12-14T10:16:03;6.90;;;2.47;;
36597;SDS011;22607;49.550;11.940;2023-12-14T10:18:30;8.05;;;2.58;;
36597;SDS011;22607;49.550;11.940;2023-12-14T10:21:00;6.63;;;2.00;;
36597;SDS011;22607;49.550;11.940;2023-12-14T10:23:29;8.75;;;2.53;;
36597;SDS011;22607;49.550;11.940;2023-12-14T10:25:56;7.53;;;2.40;;
36597;SDS011;22607;49.550;11.940;2023-12-14T10:28:24;7.47;;;2.60;;
36597;SDS011;22607;49.550;11.940;2023-12-14T10:30:51;8.10;;;3.00;;
36597;SDS011;22607;49.550;11.940;2023-12-14T10:33:18;10.60;;;3.40;;
36597;SDS011;22607;49.550;11.940;2023-12-14T10:35:45;7.60;;;3.13;;
36597;SDS011;22607;49.550;11.940;2023-12-14T10:38:13;9.90;;;3.53;;
36597;SDS011;22607;49.550;11.940;2023-12-14T10:40:41;8.15;;;3.33;;
36597;SDS011;22607;49.550;11.940;2023-12-14T10:43:10;8.45;;;2.70;;
36597;SDS011;22607;49.550;11.940;2023-12-14T10:45:40;7.57;;;3.03;;
36597;SDS011;22607;49.550;11.940;2023-12-14T10:48:10;7.30;;;2.80;;
36597;SDS011;22607;49.550;11.940;2023-12-14T10:50:41;8.10;;;3.05;;
36597;SDS011;22607;49.550;11.940;2023-12-14T10:53:09;8.65;;;2.97;;
36597;SDS011;22607;49.550;11.940;2023-12-14T10:58:10;8.38;;;3.47;;
36597;SDS011;22607;49.550;11.940;2023-12-14T11:00:37;10.20;;;4.30;;
36597;SDS011;22607;49.550;11.940;2023-12-14T11:03:04;8.25;;;3.53;;
36597;SDS011;22607;49.550;11.940;2023-12-14T11:05:33;8.70;;;3.35;;
36597;SDS011;22607;49.550;11.940;2023-12-14T11:08:02;9.05;;;3.90;;
36597;SDS011;22607;49.550;11.940;2023-12-14T11:10:40;9.68;;;4.78;;
36597;SDS011;22607;49.550;11.940;2023-12-14T11:13:09;8.93;;;3.92;;
36597;SDS011;22607;49.550;11.940;2023-12-14T11:15:46;9.63;;;4.15;;
36597;SDS011;22607;49.550;11.940;2023-12-14T11:23:12;9.55;;;4.07;;
36597;SDS011;22607;49.550;11.940;2023-12-14T11:25:48;9.15;;;3.92;;
36597;SDS011;22607;49.550;11.940;2023-12-14T11:28:24;9.57;;;4.78;;
36597;SDS011;22607;49.550;11.940;2023-12-14T11:30:53;9.73;;;4.38;;
36597;SDS011;22607;49.550;11.940;2023-12-14T11:33:22;9.20;;;4.10;;
36597;SDS011;22607;49.550;11.940;2023-12-14T11:35:51;9.48;;;4.10;;
36597;SDS011;22607;49.550;11.940;2023-12-14T11:38:20;9.27;;;3.58;;
36597;SDS011;22607;49.550;11.940;2023-12-14T11:40:49;10.70;;;4.13;;
36597;SDS011;22607;49.550;11.940;2023-12-14T11:43:16;9.73;;;4.53;;
36597;SDS011;22607;49.550;11.940;2023-12-14T11:45:47;10.52;;;5.00;;
36597;SDS011;22607;49.550;11.940;2023-12-14T11:48:14;9.10;;;3.80;;
36597;SDS011;22607;49.550;11.940;2023-12-14T11:50:41;9.77;;;4.03;;
36597;SDS011;22607;49.550;11.940;2023-12-14T11:53:09;9.27;;;3.78;;
36597;SDS011;22607;49.550;11.940;2023-12-14T11:55:38;8.63;;;3.83;;
36597;SDS011;22607;49.550;11.940;2023-12-14T11:58:06;9.80;;;3.88;;
36597;SDS011;22607;49.550;11.940;2023-12-14T12:00:34;11.35;;;4.03;;
36597;SDS011;22607;49.550;11.940;2023-12-14T12:03:10;9.10;;;3.50;;
36597;SDS011;22607;49.550;11.940;2023-12-14T12:08:08;9.05;;;3.80;;
36597;SDS011;22607;49.550;11.940;2023-12-14T12:10:38;9.30;;;4.07;;
36597;SDS011;22607;49.550;11.940;2023-12-14T12:13:12;8.82;;;3.75;;
36597;SDS011;22607;49.550;11.940;2023-12-14T12:15:46;9.97;;;4.00;;
36597;SDS011;22607;49.550;11.940;2023-12-14T12:18:15;9.00;;;3.60;;
36597;SDS011;22607;49.550;11.940;2023-12-14T12:20:43;9.30;;;4.13;;
36597;SDS011;22607;49.550;11.940;2023-12-14T12:23:10;9.73;;;3.67;;
36597;SDS011;22607;49.550;11.940;2023-12-14T12:25:38;9.57;;;4.60;;
36597;SDS011;22607;49.550;11.940;2023-12-14T12:28:05;9.07;;;3.35;;
36597;SDS011;22607;49.550;11.940;2023-12-14T12:30:33;9.07;;;3.70;;
36597;SDS011;22607;49.550;11.940;2023-12-14T12:33:04;8.38;;;3.40;;
36597;SDS011;22607;49.550;11.940;2023-12-14T12:35:31;8.80;;;3.60;;
36597;SDS011;22607;49.550;11.940;2023-12-14T12:37:59;9.63;;;3.50;;
36597;SDS011;22607;49.550;11.940;2023-12-14T12:40:26;7.90;;;3.25;;
36597;SDS011;22607;49.550;11.940;2023-12-14T12:42:53;9.93;;;4.03;;
36597;SDS011;22607;49.550;11.940;2023-12-14T12:45:19;8.98;;;3.88;;
36597;SDS011;22607;49.550;11.940;2023-12-14T12:47:52;9.18;;;3.78;;
36597;SDS011;22607;49.550;11.940;2023-12-14T12:50:19;9.15;;;4.05;;
36597;SDS011;22607;49.550;11.940;2023-12-14T12:52:46;9.90;;;4.10;;
36597;SDS011;22607;49.550;11.940;2023-12-14T12:55:15;9.07;;;3.83;;
36597;SDS011;22607;49.550;11.940;2023-12-14T12:57:43;10.85;;;3.78;;
36597;SDS011;22607;49.550;11.940;2023-12-14T13:00:10;10.38;;;3.53;;
36597;SDS011;22607;49.550;11.940;2023-12-14T13:02:41;10.60;;;3.90;;
36597;SDS011;22607;49.550;11.940;2023-12-14T13:05:09;8.68;;;3.55;;
36597;SDS011;22607;49.550;11.940;2023-12-14T13:07:43;9.60;;;3.83;;
36597;SDS011;22607;49.550;11.940;2023-12-14T13:10:12;9.82;;;4.57;;
36597;SDS011;22607;49.550;11.940;2023-12-14T13:12:54;8.90;;;3.22;;
36597;SDS011;22607;49.550;11.940;2023-12-14T13:15:22;7.78;;;3.20;;
36597;SDS011;22607;49.550;11.940;2023-12-14T13:20:20;10.18;;;3.85;;
36597;SDS011;22607;49.550;11.940;2023-12-14T13:22:48;9.18;;;3.65;;
36597;SDS011;22607;49.550;11.940;2023-12-14T13:25:15;9.30;;;3.70;;
36597;SDS011;22607;49.550;11.940;2023-12-14T13:27:42;12.23;;;4.45;;
36597;SDS011;22607;49.550;11.940;2023-12-14T13:30:09;8.88;;;3.78;;
36597;SDS011;22607;49.550;11.940;2023-12-14T13:32:37;9.40;;;4.35;;
36597;SDS011;22607;49.550;11.940;2023-12-14T13:35:04;10.93;;;4.75;;
36597;SDS011;22607;49.550;11.940;2023-12-14T13:37:32;9.38;;;4.40;;
36597;SDS011;22607;49.550;11.940;2023-12-14T13:40:00;11.32;;;4.75;;
36597;SDS011;22607;49.550;11.940;2023-12-14T13:42:26;10.50;;;5.13;;
36597;SDS011;22607;49.550;11.940;2023-12-14T13:44:53;10.55;;;4.18;;
36597;SDS011;22607;49.550;11.940;2023-12-14T13:47:20;11.52;;;5.32;;
36597;SDS011;22607;49.550;11.940;2023-12-14T13:49:47;9.52;;;4.63;;
36597;SDS011;22607;49.550;11.940;2023-12-14T13:52:15;10.73;;;4.90;;
36597;SDS011;22607;49.550;11.940;2023-12-14T13:54:41;10.70;;;5.03;;
36597;SDS011;22607;49.550;11.940;2023-12-14T13:57:08;10.45;;;4.68;;
36597;SDS011;22607;49.550;11.940;2023-12-14T13:59:35;11.13;;;5.22;;
36597;SDS011;22607;49.550;11.940;2023-12-14T14:02:01;11.13;;;4.88;;
36597;SDS011;22607;49.550;11.940;2023-12-14T14:04:28;11.30;;;5.50;;
36597;SDS011;22607;49.550;11.940;2023-12-14T14:06:55;11.43;;;4.82;;
36597;SDS011;22607;49.550;11.940;2023-12-14T14:09:23;12.00;;;5.30;;
36597;SDS011;22607;49.550;11.940;2023-12-14T14:11:49;12.10;;;6.28;;
36597;SDS011;22607;49.550;11.940;2023-12-14T14:14:17;14.93;;;5.55;;
36597;SDS011;22607;49.550;11.940;2023-12-14T14:16:44;13.40;;;5.85;;
36597;SDS011;22607;49.550;11.940;2023-12-14T14:19:11;12.57;;;5.65;;
36597;SDS011;22607;49.550;11.940;2023-12-14T14:21:38;15.48;;;7.32;;
36597;SDS011;22607;49.550;11.940;2023-12-14T14:24:05;12.23;;;6.20;;
36597;SDS011;22607;49.550;11.940;2023-12-14T14:26:32;13.30;;;6.28;;
36597;SDS011;22607;49.550;11.940;2023-12-14T14:29:00;11.13;;;5.22;;
36597;SDS011;22607;49.550;11.940;2023-12-14T14:31:38;13.60;;;6.68;;
36597;SDS011;22607;49.550;11.940;2023-12-14T14:36:52;11.77;;;5.97;;
36597;SDS011;22607;49.550;11.940;2023-12-14T14:39:19;11.95;;;6.38;;
36597;SDS011;22607;49.550;11.940;2023-12-14T14:41:48;13.98;;;6.60;;
36597;SDS011;22607;49.550;11.940;2023-12-14T14:44:24;13.07;;;6.88;;
36597;SDS011;22607;49.550;11.940;2023-12-14T14:49:22;13.53;;;7.50;;
36597;SDS011;22607;49.550;11.940;2023-12-14T14:51:49;13.50;;;7.00;;
36597;SDS011;22607;49.550;11.940;2023-12-14T14:54:15;11.93;;;6.20;;
36597;SDS011;22607;49.550;11.940;2023-12-14T14:56:43;14.88;;;6.93;;